createdAt,value
2019-03-28T00:00:51.282Z,36.33
2019-03-28T00:03:21.025Z,34.07
2019-03-28T00:05:50.752Z,31.73
2019-03-28T00:08:20.536Z,31.90
2019-03-28T00:10:50.307Z,37.27
2019-03-28T00:13:38.849Z,33.93
2019-03-28T00:16:08.571Z,31.50
2019-03-28T00:18:38.328Z,35.30
2019-03-28T00:21:08.074Z,36.80
2019-03-28T00:23:50.040Z,39.13
2019-03-28T00:26:38.618Z,35.33
2019-03-28T00:29:08.343Z,40.23
2019-03-28T00:31:57.087Z,37.43
2019-03-28T00:34:26.805Z,38.60
2019-03-28T00:37:15.392Z,36.23
2019-03-28T00:39:59.333Z,41.47
2019-03-28T00:42:29.020Z,41.10
2019-03-28T00:45:01.894Z,41.43
2019-03-28T00:48:09.332Z,41.83
2019-03-28T00:50:40.709Z,36.63
2019-03-28T00:53:10.417Z,38.73
2019-03-28T00:55:40.069Z,38.77
2019-03-28T00:58:09.641Z,41.63
2019-03-28T01:00:40.170Z,40.23
2019-03-28T01:03:09.903Z,40.37
2019-03-28T01:05:39.607Z,38.47
2019-03-28T01:08:47.097Z,40.17
2019-03-28T01:11:17.028Z,39.73
2019-03-28T01:13:46.762Z,45.53
2019-03-28T01:16:35.349Z,36.17
2019-03-28T01:19:04.969Z,37.50
2019-03-28T01:21:53.482Z,33.47
2019-03-28T01:24:23.080Z,38.47
2019-03-28T01:26:57.426Z,36.37
2019-03-28T01:29:24.101Z,33.30
2019-03-28T01:31:53.901Z,34.23
2019-03-28T01:34:53.814Z,38.43
2019-03-28T01:37:26.631Z,39.70
2019-03-28T01:39:56.333Z,38.50
2019-03-28T01:42:26.095Z,36.67
2019-03-28T01:47:56.366Z,36.10
2019-03-28T01:50:44.907Z,41.63
2019-03-28T01:53:14.685Z,32.30
2019-03-28T01:55:44.421Z,37.40
2019-03-28T01:58:14.095Z,40.20
2019-03-28T02:00:43.840Z,36.27
2019-03-28T02:03:32.393Z,36.97
2019-03-28T02:06:05.965Z,42.53
2019-03-28T02:08:54.545Z,37.43
2019-03-28T02:11:24.301Z,39.13
2019-03-28T02:14:12.884Z,35.43
2019-03-28T02:16:42.678Z,38.30
2019-03-28T02:19:12.404Z,35.20
2019-03-28T02:21:42.152Z,38.00
2019-03-28T02:24:11.912Z,36.13
2019-03-28T02:26:41.653Z,36.23
2019-03-28T02:29:30.218Z,38.47
2019-03-28T02:31:59.993Z,41.97
2019-03-28T02:34:29.727Z,38.10
2019-03-28T02:36:59.448Z,44.30
2019-03-28T02:39:29.162Z,37.27
2019-03-28T02:41:58.899Z,39.07
2019-03-28T02:44:28.657Z,38.73
2019-03-28T02:47:23.296Z,36.17
2019-03-28T02:49:52.973Z,34.73
2019-03-28T02:52:22.523Z,29.53
2019-03-28T02:54:52.475Z,33.40
2019-03-28T02:57:22.186Z,31.20
2019-03-28T02:59:51.985Z,30.77
2019-03-28T03:02:21.757Z,32.93
2019-03-28T03:05:10.413Z,34.60
2019-03-28T03:07:40.202Z,32.40
2019-03-28T03:10:11.016Z,26.90
2019-03-28T03:12:40.779Z,34.27
2019-03-28T03:15:11.364Z,31.40
2019-03-28T03:17:41.757Z,28.70
2019-03-28T03:20:11.847Z,28.73
2019-03-28T03:22:41.612Z,25.37
2019-03-28T03:25:11.403Z,29.37
2019-03-28T03:27:56.991Z,27.00
2019-03-28T03:30:12.800Z,26.43
2019-03-28T03:32:42.786Z,27.70
2019-03-28T03:35:12.535Z,30.63
2019-03-28T03:38:01.150Z,32.63
2019-03-28T03:40:30.883Z,33.00
2019-03-28T03:43:00.574Z,31.23
2019-03-28T03:45:31.772Z,36.57
2019-03-28T03:48:20.484Z,31.83
2019-03-28T03:50:50.268Z,32.97
2019-03-28T03:53:19.910Z,34.77
2019-03-28T03:56:08.661Z,35.17
2019-03-28T03:58:38.380Z,36.37
2019-03-28T04:01:26.886Z,31.37
2019-03-28T04:04:15.349Z,37.90
2019-03-28T04:06:44.933Z,34.67
2019-03-28T04:09:39.434Z,33.93
2019-03-28T04:12:27.998Z,38.77
2019-03-28T04:15:01.206Z,36.90
2019-03-28T04:17:30.969Z,39.87
2019-03-28T04:20:26.255Z,31.83
2019-03-28T04:22:59.258Z,33.03
2019-03-28T04:25:28.938Z,28.87
2019-03-28T04:27:59.455Z,36.10
2019-03-28T04:30:29.157Z,27.23
2019-03-28T04:32:58.891Z,31.33
2019-03-28T04:35:28.643Z,29.97
2019-03-28T04:37:58.704Z,27.23
2019-03-28T04:40:28.558Z,27.13
2019-03-28T04:42:58.190Z,23.57
2019-03-28T04:45:27.927Z,28.03
2019-03-28T04:50:48.498Z,26.43
2019-03-28T04:53:18.197Z,26.57
2019-03-28T04:55:47.927Z,26.53
2019-03-28T04:58:17.601Z,25.27
2019-03-28T05:00:47.230Z,25.53
2019-03-28T05:03:35.869Z,31.17
2019-03-28T05:06:05.703Z,31.20
2019-03-28T05:08:35.508Z,28.20
2019-03-28T05:11:05.213Z,27.70
2019-03-28T05:13:34.898Z,26.87
2019-03-28T05:16:04.637Z,32.27
2019-03-28T05:18:34.307Z,33.60
2019-03-28T05:21:04.027Z,27.83
2019-03-28T05:23:33.727Z,29.03
2019-03-28T05:26:03.957Z,27.70
2019-03-28T05:28:33.559Z,26.70
2019-03-28T05:31:03.295Z,29.97
2019-03-28T05:33:33.009Z,24.70
2019-03-28T05:36:04.422Z,31.40
2019-03-28T05:38:52.818Z,32.40
2019-03-28T05:41:22.572Z,24.83
2019-03-28T05:43:52.301Z,28.07
2019-03-28T05:46:40.895Z,30.10
2019-03-28T05:49:14.441Z,31.33
2019-03-28T05:52:00.998Z,35.33
2019-03-28T05:54:30.851Z,34.87
2019-03-28T05:57:19.385Z,31.40
2019-03-28T05:59:53.033Z,31.93
2019-03-28T06:02:22.963Z,30.53
2019-03-28T06:04:52.596Z,31.73
2019-03-28T06:07:22.427Z,32.00
2019-03-28T06:09:52.205Z,36.30
2019-03-28T06:12:21.973Z,30.63
2019-03-28T06:14:51.617Z,38.00
2019-03-28T06:17:21.663Z,31.93
2019-03-28T06:20:10.606Z,31.80
2019-03-28T06:22:40.368Z,29.90
2019-03-28T06:25:28.979Z,29.40
2019-03-28T06:27:59.348Z,32.13
2019-03-28T06:30:29.188Z,35.23
2019-03-28T06:32:59.098Z,31.97
2019-03-28T06:35:53.693Z,27.80
2019-03-28T06:38:42.331Z,24.83
2019-03-28T06:41:30.052Z,33.33
2019-03-28T06:44:02.899Z,26.17
2019-03-28T06:46:51.478Z,28.07
2019-03-28T06:49:21.294Z,30.47
2019-03-28T06:52:12.121Z,25.57
2019-03-28T06:54:41.773Z,27.73
2019-03-28T06:57:11.435Z,24.27
2019-03-28T06:59:41.200Z,24.40
2019-03-28T07:02:10.873Z,21.17
2019-03-28T07:04:40.517Z,23.30
2019-03-28T07:07:10.338Z,29.03
2019-03-28T07:10:02.173Z,22.83
2019-03-28T07:12:49.164Z,28.13
2019-03-28T07:15:28.790Z,32.40
2019-03-28T07:18:09.614Z,29.90
2019-03-28T07:20:39.368Z,25.43
2019-03-28T07:23:27.921Z,30.57
2019-03-28T07:25:57.610Z,34.97
2019-03-28T07:28:27.290Z,34.17
2019-03-28T07:30:57.783Z,32.47
2019-03-28T07:33:27.713Z,32.23
2019-03-28T07:36:49.390Z,37.63
2019-03-28T07:39:25.605Z,33.90
2019-03-28T07:42:06.108Z,29.53
2019-03-28T07:44:37.635Z,36.43
2019-03-28T07:47:45.171Z,33.03
2019-03-28T07:50:17.118Z,41.57
2019-03-28T07:53:05.821Z,34.90
2019-03-28T07:55:39.281Z,34.97
2019-03-28T07:58:09.481Z,27.03
2019-03-28T08:00:39.386Z,31.93
2019-03-28T08:03:09.753Z,32.47
2019-03-28T08:05:39.499Z,32.90
2019-03-28T08:08:09.715Z,26.77
2019-03-28T08:10:40.968Z,28.97
2019-03-28T08:13:33.925Z,28.97
2019-03-28T08:16:03.693Z,30.77
2019-03-28T08:18:33.786Z,27.63
2019-03-28T08:21:03.660Z,24.50
2019-03-28T08:23:35.322Z,19.27
2019-03-28T08:26:05.573Z,22.27
2019-03-28T08:28:35.767Z,21.63
2019-03-28T08:31:05.684Z,17.02
2019-03-28T08:33:37.361Z,14.93
2019-03-28T08:36:07.139Z,23.57
2019-03-28T08:38:39.846Z,19.20
2019-03-28T08:41:09.789Z,19.17
2019-03-28T08:43:39.603Z,17.07
2019-03-28T08:46:13.355Z,16.10
2019-03-28T08:48:43.326Z,15.63
2019-03-28T08:51:13.374Z,15.70
2019-03-28T08:53:43.230Z,15.77
2019-03-28T08:56:13.182Z,17.85
2019-03-28T08:58:43.454Z,21.50
2019-03-28T09:01:13.286Z,16.97
2019-03-28T09:03:52.452Z,20.73
2019-03-28T09:06:28.602Z,15.90
2019-03-28T09:08:58.965Z,20.67
2019-03-28T09:11:28.732Z,13.57
2019-03-28T09:13:59.168Z,20.03
2019-03-28T09:16:29.181Z,18.03
2019-03-28T09:18:59.075Z,16.07
2019-03-28T09:21:29.649Z,18.57
2019-03-28T09:23:59.484Z,22.03
2019-03-28T09:26:30.446Z,18.37
2019-03-28T09:29:00.414Z,18.30
2019-03-28T09:31:30.923Z,21.23
2019-03-28T09:34:00.846Z,12.00
2019-03-28T09:36:30.648Z,11.03
2019-03-28T09:39:00.845Z,14.87
2019-03-28T09:41:37.612Z,14.33
2019-03-28T09:44:13.080Z,14.70
2019-03-28T09:46:42.829Z,14.77
2019-03-28T09:49:13.448Z,17.77
2019-03-28T09:51:43.293Z,15.97
2019-03-28T09:54:12.968Z,14.27
2019-03-28T09:56:42.814Z,14.53
2019-03-28T09:59:22.585Z,14.27
2019-03-28T10:01:52.330Z,18.27
2019-03-28T10:04:58.077Z,12.37
2019-03-28T10:07:27.858Z,15.87
2019-03-28T10:09:57.640Z,16.20
2019-03-28T10:12:28.301Z,14.73
2019-03-28T10:14:58.191Z,19.53
2019-03-28T10:17:28.102Z,18.73
2019-03-28T10:19:58.650Z,13.70
2019-03-28T10:22:28.574Z,15.10
2019-03-28T10:24:58.345Z,19.83
2019-03-28T10:27:28.275Z,10.67
2019-03-28T10:29:57.949Z,9.87
2019-03-28T10:32:28.318Z,12.23
2019-03-28T10:34:58.113Z,11.07
2019-03-28T10:37:28.639Z,13.40
2019-03-28T10:39:58.310Z,15.97
2019-03-28T10:42:28.279Z,12.00
2019-03-28T10:44:58.131Z,14.10
2019-03-28T10:47:28.510Z,11.17
2019-03-28T10:49:58.441Z,17.00
2019-03-28T10:52:28.473Z,10.97
2019-03-28T10:55:17.217Z,16.50
2019-03-28T10:58:19.149Z,18.67
2019-03-28T11:01:05.690Z,21.20
2019-03-28T11:03:51.243Z,14.60
2019-03-28T11:06:30.284Z,18.57
2019-03-28T11:09:18.957Z,18.60
2019-03-28T11:11:48.907Z,17.37
2019-03-28T11:14:18.961Z,11.47
2019-03-28T11:16:48.917Z,18.77
2019-03-28T11:19:21.914Z,15.00
2019-03-28T11:22:21.729Z,18.40
2019-03-28T11:24:47.652Z,16.40
2019-03-28T11:27:36.309Z,17.33
2019-03-28T11:30:07.198Z,13.27
2019-03-28T11:32:37.076Z,19.13
2019-03-28T11:35:32.617Z,19.70
2019-03-28T11:38:02.643Z,19.03
2019-03-28T11:40:32.589Z,15.63
2019-03-28T11:43:21.519Z,22.10
2019-03-28T11:46:10.085Z,17.40
2019-03-28T11:48:40.126Z,19.00
2019-03-28T11:51:09.942Z,19.50
2019-03-28T11:53:48.046Z,19.77
2019-03-28T11:56:18.095Z,24.83
2019-03-28T11:59:04.478Z,17.60
2019-03-28T12:01:19.882Z,23.87
2019-03-28T12:03:49.824Z,21.40
2019-03-28T12:06:19.669Z,19.37
2019-03-28T12:08:49.892Z,24.33
2019-03-28T12:11:19.742Z,25.53
2019-03-28T12:13:49.657Z,22.03
2019-03-28T12:16:19.759Z,20.93
2019-03-28T12:19:29.951Z,21.63
2019-03-28T12:22:23.752Z,22.03
2019-03-28T12:25:06.558Z,29.20
2019-03-28T12:27:36.566Z,20.90
2019-03-28T12:30:07.799Z,18.67
2019-03-28T12:32:37.798Z,20.47
2019-03-28T12:35:32.537Z,23.20
2019-03-28T12:38:02.733Z,20.23
2019-03-28T12:40:51.983Z,19.87
2019-03-28T12:43:45.906Z,20.73
2019-03-28T12:46:15.794Z,20.70
2019-03-28T12:49:23.293Z,23.13
2019-03-28T12:51:59.886Z,26.20
2019-03-28T12:54:39.747Z,24.13
2019-03-28T12:57:27.702Z,25.63
2019-03-28T13:00:28.831Z,18.17
2019-03-28T13:03:51.560Z,23.07
2019-03-28T13:06:28.354Z,19.17
2019-03-28T13:09:17.095Z,20.47
2019-03-28T13:11:46.898Z,22.10
2019-03-28T13:14:44.665Z,27.10
2019-03-28T13:17:14.563Z,17.60
2019-03-28T13:19:51.596Z,17.40
2019-03-28T13:22:21.534Z,22.37
2019-03-28T13:24:51.470Z,19.60
2019-03-28T13:27:21.250Z,22.17
2019-03-28T13:30:16.057Z,22.40
2019-03-28T13:32:47.300Z,21.73
2019-03-28T13:35:17.168Z,19.63
2019-03-28T13:37:47.048Z,24.40
2019-03-28T13:40:18.373Z,18.73
2019-03-28T13:42:48.191Z,23.33
2019-03-28T13:45:18.109Z,23.47
2019-03-28T13:48:06.816Z,22.50
2019-03-28T13:50:54.873Z,24.30
2019-03-28T13:53:38.297Z,28.80
2019-03-28T13:55:56.309Z,24.43
2019-03-28T13:58:26.155Z,23.10
2019-03-28T14:00:56.417Z,22.87
2019-03-28T14:03:26.466Z,19.33
2019-03-28T14:05:56.289Z,21.20
2019-03-28T14:08:53.019Z,21.03
2019-03-28T14:11:44.773Z,20.40
2019-03-28T14:15:04.339Z,22.67
2019-03-28T14:17:57.484Z,21.90
2019-03-28T14:20:38.499Z,22.30
2019-03-28T14:23:23.478Z,18.20
2019-03-28T14:25:58.969Z,16.57
2019-03-28T14:28:33.601Z,26.03
2019-03-28T14:31:16.510Z,18.33
2019-03-28T14:34:04.731Z,16.87
2019-03-28T14:36:40.534Z,17.97
2019-03-28T14:39:14.167Z,18.93
2019-03-28T14:42:02.389Z,17.60
2019-03-28T14:44:53.532Z,14.83
2019-03-28T14:47:44.034Z,13.80
2019-03-28T14:50:14.255Z,16.53
2019-03-28T14:53:02.868Z,21.20
2019-03-28T14:55:51.201Z,19.50
2019-03-28T15:06:20.029Z,20.30
2019-03-28T15:09:27.189Z,17.90
2019-03-28T15:12:15.118Z,19.90
2019-03-28T15:15:04.817Z,20.27
2019-03-28T15:17:34.542Z,19.57
2019-03-28T15:20:13.608Z,15.53
2019-03-28T15:22:43.504Z,15.90
2019-03-28T15:25:32.201Z,17.47
2019-03-28T15:28:20.751Z,19.17
2019-03-28T15:30:56.167Z,19.27
2019-03-28T15:33:38.337Z,15.87
2019-03-28T15:35:57.261Z,23.23
2019-03-28T15:38:27.158Z,16.13
2019-03-28T15:41:05.478Z,17.90
2019-03-28T15:43:35.265Z,16.23
2019-03-28T15:46:23.969Z,20.07
2019-03-28T15:49:12.533Z,18.30
2019-03-28T15:51:44.176Z,16.90
2019-03-28T15:54:32.839Z,15.93
2019-03-28T15:57:12.157Z,19.27
2019-03-28T16:00:39.877Z,16.40
2019-03-28T16:03:13.130Z,17.00
2019-03-28T16:06:01.636Z,16.50
2019-03-28T16:08:57.483Z,20.73
2019-03-28T16:11:45.974Z,18.60
2019-03-28T16:14:15.695Z,25.83
2019-03-28T16:16:45.655Z,19.60
2019-03-28T16:19:15.391Z,20.07
2019-03-28T16:21:45.601Z,20.37
2019-03-28T16:24:15.345Z,21.27
2019-03-28T16:27:03.893Z,24.23
2019-03-28T16:29:36.812Z,17.63
2019-03-28T16:32:25.222Z,24.40
2019-03-28T16:34:56.222Z,19.50
2019-03-28T16:37:25.805Z,21.03
2019-03-28T16:39:58.618Z,24.30
2019-03-28T16:42:55.960Z,23.83
2019-03-28T16:45:25.565Z,21.17
2019-03-28T16:48:32.865Z,18.93
2019-03-28T16:51:02.426Z,18.93
2019-03-28T16:53:32.059Z,19.30
2019-03-28T16:56:01.821Z,25.80
2019-03-28T16:58:31.452Z,22.07
2019-03-28T17:01:01.051Z,17.43
2019-03-28T17:03:30.702Z,19.00
2019-03-28T17:06:00.379Z,21.90
2019-03-28T17:08:32.409Z,20.83
2019-03-28T17:11:27.645Z,20.80
2019-03-28T17:13:57.213Z,21.10
2019-03-28T17:16:45.579Z,16.87
2019-03-28T17:19:15.191Z,21.23
2019-03-28T17:22:09.603Z,18.03
2019-03-28T17:24:39.457Z,19.03
2019-03-28T17:27:09.052Z,22.37
2019-03-28T17:29:38.752Z,19.27
2019-03-28T17:32:08.390Z,21.93
2019-03-28T17:34:37.963Z,24.47
2019-03-28T17:37:07.603Z,17.27
2019-03-28T17:42:36.442Z,19.37
2019-03-28T17:45:25.688Z,23.87
2019-03-28T17:47:59.236Z,23.57
2019-03-28T17:50:47.779Z,20.20
2019-03-28T17:53:17.405Z,20.63
2019-03-28T17:55:47.052Z,24.23
2019-03-28T17:58:16.723Z,24.50
2019-03-28T18:00:47.863Z,30.20
2019-03-28T18:03:30.221Z,25.77
2019-03-28T18:05:57.874Z,22.87
2019-03-28T18:08:20.100Z,24.40
2019-03-28T18:10:49.687Z,21.80
2019-03-28T18:13:20.052Z,21.37
2019-03-28T18:15:49.644Z,24.07
2019-03-28T18:18:19.297Z,22.27
2019-03-28T18:20:49.715Z,21.50
2019-03-28T18:23:38.287Z,22.57
2019-03-28T18:26:11.882Z,20.10
2019-03-28T18:28:56.861Z,22.10
2019-03-28T18:31:50.806Z,23.23
2019-03-28T18:34:19.409Z,21.70
2019-03-28T18:37:23.074Z,22.17
2019-03-28T18:39:52.743Z,23.70
2019-03-28T18:42:22.545Z,24.10
2019-03-28T18:44:52.326Z,19.87
2019-03-28T18:47:40.852Z,26.17
2019-03-28T18:50:29.799Z,23.77
2019-03-28T18:52:59.511Z,23.50
2019-03-28T18:55:29.302Z,20.77
2019-03-28T18:58:18.475Z,26.53
2019-03-28T19:00:48.467Z,19.80
2019-03-28T19:03:18.282Z,23.40
2019-03-28T19:05:48.843Z,25.40
2019-03-28T19:08:19.270Z,22.73
2019-03-28T19:10:51.428Z,23.97
2019-03-28T19:13:25.159Z,21.63
2019-03-28T19:15:57.961Z,17.07
2019-03-28T19:18:27.502Z,25.00
2019-03-28T19:20:57.301Z,25.77
2019-03-28T19:23:30.041Z,25.53
2019-03-28T19:26:00.803Z,20.70
2019-03-28T19:28:49.443Z,19.83
2019-03-28T19:31:19.004Z,24.33
2019-03-28T19:34:07.447Z,19.40
2019-03-28T19:36:56.471Z,22.10
2019-03-28T19:39:31.746Z,25.30
2019-03-28T19:42:22.471Z,23.50
2019-03-28T19:44:51.841Z,24.90
2019-03-28T19:47:40.264Z,24.17
2019-03-28T19:50:11.492Z,23.20
2019-03-28T19:52:41.161Z,19.77
2019-03-28T19:55:15.050Z,28.37
2019-03-28T19:57:44.630Z,22.60
2019-03-28T20:00:14.796Z,23.67
2019-03-28T20:02:44.522Z,24.60
2019-03-28T20:05:46.333Z,21.57
2019-03-28T20:08:15.610Z,22.40
2019-03-28T20:10:38.454Z,19.97
2019-03-28T20:13:07.972Z,22.30
2019-03-28T20:15:37.645Z,23.03
2019-03-28T20:18:07.949Z,29.73
2019-03-28T20:20:56.411Z,25.20
2019-03-28T20:23:26.044Z,21.50
2019-03-28T20:25:55.727Z,24.93
2019-03-28T20:28:56.140Z,23.93
2019-03-28T20:31:32.559Z,24.27
2019-03-28T20:34:09.099Z,26.07
2019-03-28T20:36:44.049Z,24.00
2019-03-28T20:39:13.663Z,23.63
2019-03-28T20:41:43.299Z,29.33
2019-03-28T20:44:12.894Z,25.37
2019-03-28T20:46:42.518Z,24.50
2019-03-28T20:49:12.150Z,27.03
2019-03-28T20:51:41.772Z,23.67
2019-03-28T20:54:30.324Z,25.80
2019-03-28T20:56:59.904Z,21.27
2019-03-28T20:59:29.539Z,21.77
2019-03-28T21:04:58.345Z,24.97
2019-03-28T21:07:27.886Z,27.17
2019-03-28T21:10:23.637Z,25.87
2019-03-28T21:12:53.383Z,26.27
2019-03-28T21:15:23.094Z,28.83
2019-03-28T21:17:52.728Z,22.33
2019-03-28T21:20:22.427Z,26.73
2019-03-28T21:22:52.184Z,25.03
2019-03-28T21:25:22.245Z,24.63
2019-03-28T21:27:52.440Z,27.97
2019-03-28T21:30:22.150Z,26.23
2019-03-28T21:32:55.750Z,31.37
2019-03-28T21:35:23.155Z,24.17
2019-03-28T21:38:11.635Z,31.90
2019-03-28T21:40:59.994Z,30.03
2019-03-28T21:43:56.898Z,26.57
2019-03-28T21:46:45.588Z,26.93
2019-03-28T21:52:24.591Z,27.67
2019-03-28T22:00:40.855Z,31.23
2019-03-28T22:03:10.510Z,30.53
2019-03-28T22:05:40.117Z,37.33
2019-03-28T22:08:09.739Z,28.47
2019-03-28T22:10:39.380Z,32.70
2019-03-28T22:13:12.024Z,32.67
2019-03-28T22:15:40.446Z,33.10
2019-03-28T22:18:10.072Z,34.80
2019-03-28T22:20:39.704Z,32.73
2019-03-28T22:23:09.315Z,30.83
2019-03-28T22:25:38.924Z,30.57
2019-03-28T22:28:08.470Z,32.63
2019-03-28T22:30:38.927Z,31.70
2019-03-28T22:33:08.750Z,29.43
2019-03-28T22:35:38.372Z,32.90
2019-03-28T22:38:07.947Z,34.93
2019-03-28T22:40:37.593Z,32.33
2019-03-28T22:43:07.348Z,30.57
2019-03-28T22:45:37.083Z,37.70
2019-03-28T22:48:10.916Z,34.13
2019-03-28T22:50:38.050Z,34.83
2019-03-28T22:53:07.639Z,28.73
2019-03-28T22:55:37.242Z,26.40
2019-03-28T22:58:25.624Z,28.13
2019-03-28T23:00:58.247Z,29.73
2019-03-28T23:03:46.896Z,34.60
2019-03-28T23:06:16.721Z,28.73
2019-03-28T23:08:46.311Z,33.17
2019-03-28T23:11:34.774Z,29.27
2019-03-28T23:14:32.295Z,25.67
2019-03-28T23:17:05.687Z,26.83
2019-03-28T23:19:35.411Z,23.57
2019-03-28T23:22:23.993Z,27.97
2019-03-28T23:24:53.584Z,26.83
2019-03-28T23:27:23.275Z,30.73
2019-03-28T23:29:52.895Z,39.23
2019-03-28T23:32:22.538Z,34.40
2019-03-28T23:34:52.297Z,32.60
2019-03-28T23:37:25.340Z,33.37
2019-03-28T23:39:59.632Z,35.57
2019-03-28T23:42:29.242Z,33.83
2019-03-28T23:44:58.940Z,36.77
2019-03-28T23:47:29.961Z,23.70
2019-03-28T23:49:59.765Z,30.60
2019-03-28T23:52:29.301Z,24.97
2019-03-28T23:54:59.026Z,31.47
2019-03-28T23:57:28.974Z,21.37
2019-03-28T23:59:58.663Z,26.57
